sensor_id;sensor_type;location;lat;lon;timestamp;pressure;altitude;pressure_sealevel;temperature;humidity
37298;BME280;30517;51.932;4.278;2023-04-10T00:01:26;102040.94;;;14.17;62.56
37298;BME280;30517;51.932;4.278;2023-04-10T00:04:06;102000.22;;;13.91;62.52
37298;BME280;30517;51.932;4.278;2023-04-10T00:06:47;102018.78;;;13.99;62.45
37298;BME280;30517;51.932;4.278;2023-04-10T00:09:29;102037.38;;;14.09;62.23
37298;BME280;30517;51.932;4.278;2023-04-10T00:12:10;101997.53;;;13.86;62.36
37298;BME280;30517;51.932;4.278;2023-04-10T00:14:51;102032.06;;;14.05;62.67
37298;BME280;30517;51.932;4.278;2023-04-10T00:17:31;102024.09;;;13.99;62.38
37298;BME280;30517;51.932;4.278;2023-04-10T00:20:12;102010.81;;;13.91;62.47
37298;BME280;30517;51.932;4.278;2023-04-10T00:22:53;101989.59;;;13.80;62.68
37298;BME280;30517;51.932;4.278;2023-04-10T00:25:34;102026.75;;;14.00;62.41
37298;BME280;30517;51.932;4.278;2023-04-10T00:28:15;102003.75;;;13.88;62.37
37298;BME280;30517;51.932;4.278;2023-04-10T00:30:56;102006.41;;;13.91;62.33
37298;BME280;30517;51.932;4.278;2023-04-10T00:33:37;102016.13;;;13.97;62.55
37298;BME280;30517;51.932;4.278;2023-04-10T00:36:17;102003.72;;;13.90;62.43
37298;BME280;30517;51.932;4.278;2023-04-10T00:38:58;101990.47;;;13.87;62.59
37298;BME280;30517;51.932;4.278;2023-04-10T00:41:40;101968.34;;;13.69;62.06
37298;BME280;30517;51.932;4.278;2023-04-10T00:44:20;101983.38;;;13.80;62.26
37298;BME280;30517;51.932;4.278;2023-04-10T00:47:03;102003.72;;;13.90;62.16
37298;BME280;30517;51.932;4.278;2023-04-10T00:49:44;102001.97;;;13.89;62.31
37298;BME280;30517;51.932;4.278;2023-04-10T00:52:25;101983.38;;;13.87;62.25
37298;BME280;30517;51.932;4.278;2023-04-10T00:55:06;101978.06;;;13.80;61.80
37298;BME280;30517;51.932;4.278;2023-04-10T00:57:47;101966.59;;;13.75;62.18
37298;BME280;30517;51.932;4.278;2023-04-10T01:00:28;101974.53;;;13.82;62.23
37298;BME280;30517;51.932;4.278;2023-04-10T01:03:11;101967.44;;;13.80;62.05
37298;BME280;30517;51.932;4.278;2023-04-10T01:15:24;101936.53;;;13.66;62.01
37298;BME280;30517;51.932;4.278;2023-04-10T01:18:15;101936.53;;;13.72;61.99
37298;BME280;30517;51.932;4.278;2023-04-10T01:21:01;101915.28;;;13.63;62.42
37298;BME280;30517;51.932;4.278;2023-04-10T01:29:55;101936.53;;;13.69;62.21
37298;BME280;30517;51.932;4.278;2023-04-10T01:32:38;101916.16;;;13.59;62.17
37298;BME280;30517;51.932;4.278;2023-04-10T01:35:19;101914.38;;;13.55;62.31
37298;BME280;30517;51.932;4.278;2023-04-10T01:38:02;101920.56;;;13.63;61.89
37298;BME280;30517;51.932;4.278;2023-04-10T01:40:48;101922.38;;;13.61;61.69
37298;BME280;30517;51.932;4.278;2023-04-10T01:43:31;101915.28;;;13.62;62.26
37298;BME280;30517;51.932;4.278;2023-04-10T01:46:13;101917.91;;;13.60;62.07
37298;BME280;30517;51.932;4.278;2023-04-10T01:48:54;101907.28;;;13.53;61.88
37298;BME280;30517;51.932;4.278;2023-04-10T01:51:36;101909.06;;;13.58;61.89
37298;BME280;30517;51.932;4.278;2023-04-10T01:54:17;101917.03;;;13.55;62.19
37298;BME280;30517;51.932;4.278;2023-04-10T01:56:59;101889.63;;;13.42;62.28
37298;BME280;30517;51.932;4.278;2023-04-10T01:59:41;101915.25;;;13.53;61.95
37298;BME280;30517;51.932;4.278;2023-04-10T02:02:22;101900.22;;;13.41;62.01
37298;BME280;30517;51.932;4.278;2023-04-10T02:05:03;101909.09;;;13.50;62.30
37298;BME280;30517;51.932;4.278;2023-04-10T02:08:01;101914.38;;;13.49;62.10
37298;BME280;30517;51.932;4.278;2023-04-10T02:10:51;101909.97;;;13.48;61.88
37298;BME280;30517;51.932;4.278;2023-04-10T02:13:34;101909.94;;;13.46;62.32
37298;BME280;30517;51.932;4.278;2023-04-10T02:16:18;101887.81;;;13.29;61.89
37298;BME280;30517;51.932;4.278;2023-04-10T02:19:01;101897.53;;;13.28;62.34
37298;BME280;30517;51.932;4.278;2023-04-10T02:21:42;101918.75;;;13.41;62.28
37298;BME280;30517;51.932;4.278;2023-04-10T02:24:23;101906.41;;;13.37;62.28
37298;BME280;30517;51.932;4.278;2023-04-10T02:27:05;101886.91;;;13.27;62.17
37298;BME280;30517;51.932;4.278;2023-04-10T02:29:45;101867.41;;;13.13;61.92
37298;BME280;30517;51.932;4.278;2023-04-10T02:32:26;101916.09;;;13.38;62.15
37298;BME280;30517;51.932;4.278;2023-04-10T02:35:07;101922.28;;;13.37;62.17
37298;BME280;30517;51.932;4.278;2023-04-10T02:37:48;101922.25;;;13.27;62.07
37298;BME280;30517;51.932;4.278;2023-04-10T02:40:29;101921.38;;;13.33;61.85
37298;BME280;30517;51.932;4.278;2023-04-10T02:43:10;101906.28;;;13.18;61.77
37298;BME280;30517;51.932;4.278;2023-04-10T02:45:51;101911.59;;;13.21;62.25
37298;BME280;30517;51.932;4.278;2023-04-10T02:48:32;101931.97;;;13.30;61.94
37298;BME280;30517;51.932;4.278;2023-04-10T02:51:13;101920.50;;;13.30;62.23
37298;BME280;30517;51.932;4.278;2023-04-10T02:53:53;101927.53;;;13.27;61.70
37298;BME280;30517;51.932;4.278;2023-04-10T02:56:34;101903.63;;;13.20;61.88
37298;BME280;30517;51.932;4.278;2023-04-10T02:59:15;101916.91;;;13.24;61.85
37298;BME280;30517;51.932;4.278;2023-04-10T03:01:57;101912.50;;;13.23;62.27
37298;BME280;30517;51.932;4.278;2023-04-10T03:04:37;101905.41;;;13.22;61.86
37298;BME280;30517;51.932;4.278;2023-04-10T03:07:18;101896.56;;;13.20;61.85
37298;BME280;30517;51.932;4.278;2023-04-10T03:09:59;101893.91;;;13.20;61.80
37298;BME280;30517;51.932;4.278;2023-04-10T03:12:40;101870.03;;;13.02;61.56
37298;BME280;30517;51.932;4.278;2023-04-10T03:15:20;101879.75;;;13.06;61.68
37298;BME280;30517;51.932;4.278;2023-04-10T03:18:01;101892.16;;;13.16;61.99
37298;BME280;30517;51.932;4.278;2023-04-10T03:20:42;101896.56;;;13.16;61.91
37298;BME280;30517;51.932;4.278;2023-04-10T03:23:23;101882.41;;;13.07;62.01
37298;BME280;30517;51.932;4.278;2023-04-10T03:26:04;101880.66;;;13.13;61.51
37298;BME280;30517;51.932;4.278;2023-04-10T03:28:45;101858.53;;;13.00;62.22
37298;BME280;30517;51.932;4.278;2023-04-10T03:31:26;101871.81;;;13.09;62.24
37298;BME280;30517;51.932;4.278;2023-04-10T03:34:07;101840.88;;;12.94;61.95
37298;BME280;30517;51.932;4.278;2023-04-10T03:36:48;101843.50;;;12.93;62.21
37298;BME280;30517;51.932;4.278;2023-04-10T03:39:28;101859.44;;;13.06;61.54
37298;BME280;30517;51.932;4.278;2023-04-10T03:42:09;101851.50;;;13.02;61.73
37298;BME280;30517;51.932;4.278;2023-04-10T03:44:50;101849.72;;;13.02;62.11
37298;BME280;30517;51.932;4.278;2023-04-10T03:47:31;101834.66;;;12.91;61.88
37298;BME280;30517;51.932;4.278;2023-04-10T03:50:12;101847.94;;;13.00;61.77
37298;BME280;30517;51.932;4.278;2023-04-10T03:52:53;101836.41;;;12.90;61.91
37298;BME280;30517;51.932;4.278;2023-04-10T03:55:34;101843.53;;;12.97;61.91
37298;BME280;30517;51.932;4.278;2023-04-10T03:58:17;101815.19;;;12.82;61.99
37298;BME280;30517;51.932;4.278;2023-04-10T04:00:58;101843.50;;;12.94;62.41
37298;BME280;30517;51.932;4.278;2023-04-10T04:03:39;101842.63;;;12.94;62.39
37298;BME280;30517;51.932;4.278;2023-04-10T04:06:20;101809.00;;;12.79;62.03
37298;BME280;30517;51.932;4.278;2023-04-10T04:09:01;101828.47;;;12.86;62.23
37298;BME280;30517;51.932;4.278;2023-04-10T04:11:41;101838.19;;;12.91;61.99
37298;BME280;30517;51.932;4.278;2023-04-10T04:14:22;101824.91;;;12.85;61.88
37298;BME280;30517;51.932;4.278;2023-04-10T04:17:03;101823.13;;;12.82;61.88
37298;BME280;30517;51.932;4.278;2023-04-10T04:19:44;101820.50;;;12.82;62.25
37298;BME280;30517;51.932;4.278;2023-04-10T04:22:25;101829.34;;;12.86;62.12
37298;BME280;30517;51.932;4.278;2023-04-10T04:25:06;101800.16;;;12.71;62.13
37298;BME280;30517;51.932;4.278;2023-04-10T04:27:49;101815.25;;;12.86;61.90
37298;BME280;30517;51.932;4.278;2023-04-10T04:30:30;101787.81;;;12.73;61.99
37298;BME280;30517;51.932;4.278;2023-04-10T04:33:11;101790.47;;;12.73;62.18
37298;BME280;30517;51.932;4.278;2023-04-10T04:35:55;101806.38;;;12.82;62.06
37298;BME280;30517;51.932;4.278;2023-04-10T04:38:37;101795.75;;;12.73;61.79
37298;BME280;30517;51.932;4.278;2023-04-10T04:41:18;101806.38;;;12.80;61.95
37298;BME280;30517;51.932;4.278;2023-04-10T04:44:03;101813.44;;;12.78;62.50
37298;BME280;30517;51.932;4.278;2023-04-10T04:46:44;101781.59;;;12.60;62.37
37298;BME280;30517;51.932;4.278;2023-04-10T04:49:26;101806.34;;;12.76;62.42
37298;BME280;30517;51.932;4.278;2023-04-10T04:52:06;101802.84;;;12.75;62.14
37298;BME280;30517;51.932;4.278;2023-04-10T04:54:48;101786.91;;;12.65;61.70
37298;BME280;30517;51.932;4.278;2023-04-10T04:57:29;101806.34;;;12.73;62.03
37298;BME280;30517;51.932;4.278;2023-04-10T05:00:10;101788.66;;;12.61;62.10
37298;BME280;30517;51.932;4.278;2023-04-10T05:02:52;101798.38;;;12.71;61.83
37298;BME280;30517;51.932;4.278;2023-04-10T05:05:32;101805.47;;;12.72;61.76
37298;BME280;30517;51.932;4.278;2023-04-10T05:08:13;101791.31;;;12.69;62.48
37298;BME280;30517;51.932;4.278;2023-04-10T05:10:55;101794.88;;;12.69;62.32
37298;BME280;30517;51.932;4.278;2023-04-10T05:13:35;101790.47;;;12.70;62.19
37298;BME280;30517;51.932;4.278;2023-04-10T05:16:16;101797.53;;;12.69;61.84
37298;BME280;30517;51.932;4.278;2023-04-10T05:18:57;101792.19;;;12.65;62.18
37298;BME280;30517;51.932;4.278;2023-04-10T05:21:38;101791.31;;;12.64;61.83
37298;BME280;30517;51.932;4.278;2023-04-10T05:24:19;101771.00;;;12.57;62.05
37298;BME280;30517;51.932;4.278;2023-04-10T05:27:00;101763.03;;;12.55;61.89
37298;BME280;30517;51.932;4.278;2023-04-10T05:29:41;101774.53;;;12.62;62.34
37298;BME280;30517;51.932;4.278;2023-04-10T05:32:24;101773.66;;;12.58;61.71
37298;BME280;30517;51.932;4.278;2023-04-10T05:35:05;101788.66;;;12.66;61.52
37298;BME280;30517;51.932;4.278;2023-04-10T05:37:46;101781.59;;;12.63;62.13
37298;BME280;30517;51.932;4.278;2023-04-10T05:40:28;101769.25;;;12.63;62.47
37298;BME280;30517;51.932;4.278;2023-04-10T05:43:08;101776.31;;;12.63;62.22
37298;BME280;30517;51.932;4.278;2023-04-10T05:45:49;101755.97;;;12.54;62.00
37298;BME280;30517;51.932;4.278;2023-04-10T05:48:30;101748.00;;;12.47;61.58
37298;BME280;30517;51.932;4.278;2023-04-10T05:51:11;101759.50;;;12.52;61.71
37298;BME280;30517;51.932;4.278;2023-04-10T05:53:52;101751.56;;;12.53;61.84
37298;BME280;30517;51.932;4.278;2023-04-10T05:56:33;101747.13;;;12.49;62.04
37298;BME280;30517;51.932;4.278;2023-04-10T05:59:14;101748.03;;;12.54;62.12
37298;BME280;30517;51.932;4.278;2023-04-10T06:01:56;101746.22;;;12.47;61.99
37298;BME280;30517;51.932;4.278;2023-04-10T06:04:37;101764.84;;;12.61;62.18
37298;BME280;30517;51.932;4.278;2023-04-10T06:07:17;101753.38;;;12.59;62.10
37298;BME280;30517;51.932;4.278;2023-04-10T06:09:58;101726.84;;;12.47;61.68
37298;BME280;30517;51.932;4.278;2023-04-10T06:12:39;101737.47;;;12.57;61.74
37298;BME280;30517;51.932;4.278;2023-04-10T06:15:20;101721.56;;;12.48;61.74
37298;BME280;30517;51.932;4.278;2023-04-10T06:18:01;101732.16;;;12.57;62.52
37298;BME280;30517;51.932;4.278;2023-04-10T06:20:50;101700.38;;;12.44;62.14
37298;BME280;30517;51.932;4.278;2023-04-10T06:23:30;101716.25;;;12.53;62.01
37298;BME280;30517;51.932;4.278;2023-04-10T06:26:11;101715.41;;;12.55;62.10
37298;BME280;30517;51.932;4.278;2023-04-10T06:28:52;101701.28;;;12.49;61.63
37298;BME280;30517;51.932;4.278;2023-04-10T06:31:33;101615.56;;;11.99;61.97
37298;BME280;30517;51.932;4.278;2023-04-10T06:34:14;101700.38;;;12.44;61.65
37298;BME280;30517;51.932;4.278;2023-04-10T06:36:55;101711.84;;;12.49;62.08
37298;BME280;30517;51.932;4.278;2023-04-10T06:39:36;101711.00;;;12.54;61.87
37298;BME280;30517;51.932;4.278;2023-04-10T06:42:17;101693.31;;;12.47;62.55
37298;BME280;30517;51.932;4.278;2023-04-10T06:44:57;101714.50;;;12.55;61.89
37298;BME280;30517;51.932;4.278;2023-04-10T06:47:38;101701.25;;;12.47;61.92
37298;BME280;30517;51.932;4.278;2023-04-10T06:50:19;101687.16;;;12.50;62.14
37298;BME280;30517;51.932;4.278;2023-04-10T06:53:00;101665.97;;;12.37;62.01
37298;BME280;30517;51.932;4.278;2023-04-10T06:55:41;101700.41;;;12.54;62.04
37298;BME280;30517;51.932;4.278;2023-04-10T06:58:22;101681.81;;;12.42;62.49
37298;BME280;30517;51.932;4.278;2023-04-10T07:01:03;101691.59;;;12.54;62.38
37298;BME280;30517;51.932;4.278;2023-04-10T07:03:44;101650.06;;;12.36;61.53
37298;BME280;30517;51.932;4.278;2023-04-10T07:06:25;101679.22;;;12.50;61.42
37298;BME280;30517;51.932;4.278;2023-04-10T07:09:06;101683.66;;;12.51;62.01
37298;BME280;30517;51.932;4.278;2023-04-10T07:11:47;101682.75;;;12.55;61.96
37298;BME280;30517;51.932;4.278;2023-04-10T07:14:28;101673.94;;;12.54;62.21
37298;BME280;30517;51.932;4.278;2023-04-10T07:17:10;101660.69;;;12.44;61.13
37298;BME280;30517;51.932;4.278;2023-04-10T07:19:50;101626.25;;;12.30;60.30
37298;BME280;30517;51.932;4.278;2023-04-10T07:22:31;101655.38;;;12.47;60.48
37298;BME280;30517;51.932;4.278;2023-04-10T07:25:12;101633.31;;;12.29;60.16
37298;BME280;30517;51.932;4.278;2023-04-10T07:27:53;101645.69;;;12.47;59.84
37298;BME280;30517;51.932;4.278;2023-04-10T07:30:34;101638.66;;;12.48;59.97
37298;BME280;30517;51.932;4.278;2023-04-10T07:33:15;101620.09;;;12.38;59.97
37298;BME280;30517;51.932;4.278;2023-04-10T07:35:56;101637.75;;;12.52;60.54
37298;BME280;30517;51.932;4.278;2023-04-10T07:38:37;101643.06;;;12.52;61.06
37298;BME280;30517;51.932;4.278;2023-04-10T07:41:19;101631.56;;;12.53;61.06
37298;BME280;30517;51.932;4.278;2023-04-10T07:43:59;101613.94;;;12.46;61.24
37298;BME280;30517;51.932;4.278;2023-04-10T07:46:40;101606.88;;;12.42;61.53
37298;BME280;30517;51.932;4.278;2023-04-10T07:49:21;101630.69;;;12.55;61.28
37298;BME280;30517;51.932;4.278;2023-04-10T07:52:02;101621.03;;;12.56;60.96
37298;BME280;30517;51.932;4.278;2023-04-10T07:54:43;101610.44;;;12.51;61.34
37298;BME280;30517;51.932;4.278;2023-04-10T07:57:24;101610.44;;;12.56;61.75
37298;BME280;30517;51.932;4.278;2023-04-10T08:00:06;101574.25;;;12.44;61.41
37298;BME280;30517;51.932;4.278;2023-04-10T08:02:46;101604.25;;;12.57;61.26
37298;BME280;30517;51.932;4.278;2023-04-10T08:05:27;101578.66;;;12.51;61.83
37298;BME280;30517;51.932;4.278;2023-04-10T08:08:08;101596.34;;;12.58;61.69
37298;BME280;30517;51.932;4.278;2023-04-10T08:10:49;101571.59;;;12.49;61.52
37298;BME280;30517;51.932;4.278;2023-04-10T08:13:30;101561.91;;;12.48;61.58
37298;BME280;30517;51.932;4.278;2023-04-10T08:16:11;101562.78;;;12.48;61.17
37298;BME280;30517;51.932;4.278;2023-04-10T08:18:52;101583.97;;;12.60;61.58
37298;BME280;30517;51.932;4.278;2023-04-10T08:21:33;101580.44;;;12.63;61.30
37298;BME280;30517;51.932;4.278;2023-04-10T08:24:14;101575.16;;;12.61;61.94
37298;BME280;30517;51.932;4.278;2023-04-10T08:26:59;101581.34;;;12.62;61.51
37298;BME280;30517;51.932;4.278;2023-04-10T08:29:41;101564.53;;;12.52;61.55
37298;BME280;30517;51.932;4.278;2023-04-10T08:32:22;101564.53;;;12.52;61.60
37298;BME280;30517;51.932;4.278;2023-04-10T08:35:05;101572.50;;;12.58;61.97
37298;BME280;30517;51.932;4.278;2023-04-10T08:37:46;101574.28;;;12.64;62.04
37298;BME280;30517;51.932;4.278;2023-04-10T08:40:27;101547.78;;;12.58;62.23
37298;BME280;30517;51.932;4.278;2023-04-10T08:43:08;101524.84;;;12.49;61.70
37298;BME280;30517;51.932;4.278;2023-04-10T08:45:51;101546.94;;;12.67;61.78
37298;BME280;30517;51.932;4.278;2023-04-10T08:48:37;101540.75;;;12.68;61.55
37298;BME280;30517;51.932;4.278;2023-04-10T08:51:20;101525.75;;;12.70;61.53
37298;BME280;30517;51.932;4.278;2023-04-10T08:54:06;101530.16;;;12.72;61.91
37298;BME280;30517;51.932;4.278;2023-04-10T08:56:49;101523.09;;;12.70;61.37
37298;BME280;30517;51.932;4.278;2023-04-10T08:59:31;101517.81;;;12.67;61.49
37298;BME280;30517;51.932;4.278;2023-04-10T09:02:14;101501.03;;;12.60;62.09
37298;BME280;30517;51.932;4.278;2023-04-10T09:04:56;101504.56;;;12.68;61.70
37298;BME280;30517;51.932;4.278;2023-04-10T09:07:39;101508.09;;;12.72;61.60
37298;BME280;30517;51.932;4.278;2023-04-10T09:10:20;101501.94;;;12.77;61.87
37298;BME280;30517;51.932;4.278;2023-04-10T09:13:01;101500.16;;;12.79;61.57
37298;BME280;30517;51.932;4.278;2023-04-10T09:15:54;101482.53;;;12.72;61.81
37298;BME280;30517;51.932;4.278;2023-04-10T09:18:43;101496.63;;;12.83;61.73
37298;BME280;30517;51.932;4.278;2023-04-10T09:21:24;101500.16;;;12.89;61.78
37298;BME280;30517;51.932;4.278;2023-04-10T09:24:06;101486.03;;;12.87;61.59
37298;BME280;30517;51.932;4.278;2023-04-10T09:26:47;101468.41;;;12.78;62.30
37298;BME280;30517;51.932;4.278;2023-04-10T09:29:38;101493.97;;;12.90;61.60
37298;BME280;30517;51.932;4.278;2023-04-10T09:32:40;101483.38;;;12.88;62.23
37298;BME280;30517;51.932;4.278;2023-04-10T09:35:21;101493.97;;;12.94;61.54
37298;BME280;30517;51.932;4.278;2023-04-10T09:38:15;101482.50;;;12.94;61.76
37298;BME280;30517;51.932;4.278;2023-04-10T09:41:05;101329.13;;;11.97;62.06
37298;BME280;30517;51.932;4.278;2023-04-10T09:43:47;101463.06;;;12.92;62.05
37298;BME280;30517;51.932;4.278;2023-04-10T09:46:28;101419.88;;;12.68;61.57
37298;BME280;30517;51.932;4.278;2023-04-10T09:49:09;101437.50;;;12.86;61.83
37298;BME280;30517;51.932;4.278;2023-04-10T09:51:50;101438.38;;;12.87;61.65
37298;BME280;30517;51.932;4.278;2023-04-10T09:54:35;101463.03;;;13.09;62.00
37298;BME280;30517;51.932;4.278;2023-04-10T09:57:20;101430.41;;;12.99;62.23
37298;BME280;30517;51.932;4.278;2023-04-10T10:00:03;101431.22;;;13.12;61.74
37298;BME280;30517;51.932;4.278;2023-04-10T10:02:47;101397.75;;;12.94;61.66
37298;BME280;30517;51.932;4.278;2023-04-10T10:05:28;101432.97;;;13.17;62.23
37298;BME280;30517;51.932;4.278;2023-04-10T10:08:11;101425.03;;;13.17;61.93
37298;BME280;30517;51.932;4.278;2023-04-10T10:10:55;101414.41;;;13.22;61.79
37298;BME280;30517;51.932;4.278;2023-04-10T10:13:50;101418.84;;;13.21;62.31
37298;BME280;30517;51.932;4.278;2023-04-10T10:16:40;101425.03;;;13.26;62.09
37298;BME280;30517;51.932;4.278;2023-04-10T10:19:33;101397.66;;;13.21;62.09
37298;BME280;30517;51.932;4.278;2023-04-10T10:22:17;101405.59;;;13.32;61.85
37298;BME280;30517;51.932;4.278;2023-04-10T10:24:59;101377.28;;;13.36;62.12
37298;BME280;30517;51.932;4.278;2023-04-10T10:27:40;101380.81;;;13.36;62.03
37298;BME280;30517;51.932;4.278;2023-04-10T10:30:21;101347.31;;;13.24;62.09
37298;BME280;30517;51.932;4.278;2023-04-10T10:33:05;101364.91;;;13.39;62.30
37298;BME280;30517;51.932;4.278;2023-04-10T10:35:47;101356.97;;;13.41;62.03
37298;BME280;30517;51.932;4.278;2023-04-10T10:38:30;101361.34;;;13.42;62.19
37298;BME280;30517;51.932;4.278;2023-04-10T10:41:19;101361.34;;;13.43;62.30
37298;BME280;30517;51.932;4.278;2023-04-10T10:44:41;101353.41;;;13.48;62.52
37298;BME280;30517;51.932;4.278;2023-04-10T10:47:27;101334.88;;;13.45;62.16
37298;BME280;30517;51.932;4.278;2023-04-10T10:50:08;101349.78;;;13.55;62.07
37298;BME280;30517;51.932;4.278;2023-04-10T10:52:51;101336.50;;;13.58;62.04
37298;BME280;30517;51.932;4.278;2023-04-10T10:55:33;101326.81;;;13.57;62.10
37298;BME280;30517;51.932;4.278;2023-04-10T10:58:14;101296.88;;;13.46;62.59
37298;BME280;30517;51.932;4.278;2023-04-10T11:03:39;101313.50;;;13.66;62.16
37298;BME280;30517;51.932;4.278;2023-04-10T11:06:47;101301.09;;;13.70;62.25
37298;BME280;30517;51.932;4.278;2023-04-10T11:12:24;101298.44;;;13.75;62.55
37298;BME280;30517;51.932;4.278;2023-04-10T11:15:06;101274.66;;;13.61;62.62
37298;BME280;30517;51.932;4.278;2023-04-10T11:17:51;101278.97;;;13.76;62.30
37298;BME280;30517;51.932;4.278;2023-04-10T11:21:07;101292.16;;;13.83;62.42
37298;BME280;30517;51.932;4.278;2023-04-10T11:29:32;101270.00;;;13.89;61.48
37298;BME280;30517;51.932;4.278;2023-04-10T11:32:13;101181.16;;;13.42;62.17
37298;BME280;30517;51.932;4.278;2023-04-10T11:34:54;101275.22;;;13.98;62.14
37298;BME280;30517;51.932;4.278;2023-04-10T11:37:35;101257.53;;;14.00;61.67
37298;BME280;30517;51.932;4.278;2023-04-10T11:40:16;101246.88;;;14.03;61.90
37298;BME280;30517;51.932;4.278;2023-04-10T11:43:11;101242.47;;;14.02;62.11
37298;BME280;30517;51.932;4.278;2023-04-10T11:46:04;101228.31;;;14.03;61.98
37298;BME280;30517;51.932;4.278;2023-04-10T11:48:45;101241.59;;;14.02;60.15
37298;BME280;30517;51.932;4.278;2023-04-10T11:51:26;101231.22;;;13.80;57.63
37298;BME280;30517;51.932;4.278;2023-04-10T11:54:23;101238.22;;;13.86;59.15
37298;BME280;30517;51.932;4.278;2023-04-10T11:57:06;101241.69;;;13.94;57.59
37298;BME280;30517;51.932;4.278;2023-04-10T11:59:53;101242.59;;;13.91;57.95
37298;BME280;30517;51.932;4.278;2023-04-10T12:02:34;101235.56;;;13.86;58.09
37298;BME280;30517;51.932;4.278;2023-04-10T12:05:15;101248.78;;;13.89;59.44
37298;BME280;30517;51.932;4.278;2023-04-10T12:07:56;101257.63;;;13.91;60.51
37298;BME280;30517;51.932;4.278;2023-04-10T12:10:46;101162.63;;;13.43;59.97
37298;BME280;30517;51.932;4.278;2023-04-10T12:13:28;101215.16;;;13.94;60.36
37298;BME280;30517;51.932;4.278;2023-04-10T12:16:09;101207.19;;;13.94;60.97
37298;BME280;30517;51.932;4.278;2023-04-10T12:18:51;101227.44;;;14.01;60.89
37298;BME280;30517;51.932;4.278;2023-04-10T12:21:35;101217.66;;;14.06;61.33
37298;BME280;30517;51.932;4.278;2023-04-10T12:24:47;101239.75;;;14.10;61.73
37298;BME280;30517;51.932;4.278;2023-04-10T12:27:28;101229.03;;;14.21;61.77
37298;BME280;30517;51.932;4.278;2023-04-10T12:30:09;101216.47;;;14.35;61.46
37298;BME280;30517;51.932;4.278;2023-04-10T12:32:51;101200.47;;;14.41;61.51
37298;BME280;30517;51.932;4.278;2023-04-10T12:35:39;101216.16;;;14.64;61.68
37298;BME280;30517;51.932;4.278;2023-04-10T12:38:42;101189.69;;;14.55;61.83
37298;BME280;30517;51.932;4.278;2023-04-10T12:41:27;101200.06;;;14.75;61.85
37298;BME280;30517;51.932;4.278;2023-04-10T12:44:10;101191.19;;;14.76;62.64
37298;BME280;30517;51.932;4.278;2023-04-10T12:46:58;101180.53;;;14.79;62.62
37298;BME280;30517;51.932;4.278;2023-04-10T12:49:40;101171.69;;;14.80;62.04
37298;BME280;30517;51.932;4.278;2023-04-10T12:52:21;101168.09;;;14.81;62.67
37298;BME280;30517;51.932;4.278;2023-04-10T12:55:16;101164.59;;;14.79;62.68
37298;BME280;30517;51.932;4.278;2023-04-10T12:58:14;101129.44;;;14.62;61.79
37298;BME280;30517;51.932;4.278;2023-04-10T13:01:01;101151.31;;;14.79;62.06
37298;BME280;30517;51.932;4.278;2023-04-10T13:03:42;101168.06;;;14.84;61.92
37298;BME280;30517;51.932;4.278;2023-04-10T13:06:23;101159.56;;;14.59;62.66
37298;BME280;30517;51.932;4.278;2023-04-10T13:09:04;101167.13;;;14.19;64.36
37298;BME280;30517;51.932;4.278;2023-04-10T13:11:45;101169.16;;;13.97;65.82
37298;BME280;30517;51.932;4.278;2023-04-10T13:14:25;101126.19;;;13.65;65.72
37298;BME280;30517;51.932;4.278;2023-04-10T13:17:06;101133.16;;;13.74;66.43
37298;BME280;30517;51.932;4.278;2023-04-10T13:19:47;101146.38;;;13.80;66.77
37298;BME280;30517;51.932;4.278;2023-04-10T13:22:29;101104.13;;;13.60;67.10
37298;BME280;30517;51.932;4.278;2023-04-10T13:25:10;101126.03;;;13.79;66.84
37298;BME280;30517;51.932;4.278;2023-04-10T13:27:51;101128.75;;;13.73;66.67
37298;BME280;30517;51.932;4.278;2023-04-10T13:30:35;101081.22;;;13.55;66.68
37298;BME280;30517;51.932;4.278;2023-04-10T13:33:17;101103.16;;;13.72;67.30
37298;BME280;30517;51.932;4.278;2023-04-10T13:35:58;101075.91;;;13.59;67.59
37298;BME280;30517;51.932;4.278;2023-04-10T13:38:38;101103.59;;;14.08;66.66
37298;BME280;30517;51.932;4.278;2023-04-10T13:41:19;101098.13;;;14.23;66.02
37298;BME280;30517;51.932;4.278;2023-04-10T13:44:00;101101.31;;;14.47;65.96
37298;BME280;30517;51.932;4.278;2023-04-10T13:46:41;101110.94;;;14.57;65.56
37298;BME280;30517;51.932;4.278;2023-04-10T13:49:22;101083.41;;;14.63;65.71
37298;BME280;30517;51.932;4.278;2023-04-10T13:52:04;101070.38;;;14.46;65.51
37298;BME280;30517;51.932;4.278;2023-04-10T13:54:45;101081.56;;;14.68;65.44
37298;BME280;30517;51.932;4.278;2023-04-10T13:57:25;101061.19;;;14.68;65.55
37298;BME280;30517;51.932;4.278;2023-04-10T14:00:07;101025.31;;;14.43;65.61
37298;BME280;30517;51.932;4.278;2023-04-10T14:02:48;101055.88;;;14.68;65.60
37298;BME280;30517;51.932;4.278;2023-04-10T14:05:29;101004.06;;;14.43;65.57
37298;BME280;30517;51.932;4.278;2023-04-10T14:08:10;101053.22;;;14.70;65.90
37298;BME280;30517;51.932;4.278;2023-04-10T14:10:55;100989.94;;;14.39;65.44
37298;BME280;30517;51.932;4.278;2023-04-10T14:13:35;101019.69;;;14.64;65.75
37298;BME280;30517;51.932;4.278;2023-04-10T14:16:16;101013.69;;;14.53;65.83
37298;BME280;30517;51.932;4.278;2023-04-10T14:18:57;101042.66;;;14.67;65.79
37298;BME280;30517;51.932;4.278;2023-04-10T14:21:38;101049.72;;;14.66;65.85
37298;BME280;30517;51.932;4.278;2023-04-10T14:24:20;101060.34;;;14.66;65.62
37298;BME280;30517;51.932;4.278;2023-04-10T14:27:01;101043.56;;;14.64;65.87
37298;BME280;30517;51.932;4.278;2023-04-10T14:29:41;101046.22;;;14.64;66.04
37298;BME280;30517;51.932;4.278;2023-04-10T14:32:22;101037.53;;;14.51;66.22
37298;BME280;30517;51.932;4.278;2023-04-10T14:35:03;101060.38;;;14.63;66.00
37298;BME280;30517;51.932;4.278;2023-04-10T14:37:44;101054.25;;;14.61;65.95